sensor_id;sensor_type;location;lat;lon;timestamp;P1;durP1;ratioP1;P2;durP2;ratioP2
11010;SDS011;5558;42.702;23.178;2022-11-15T00:01:55;32.67;;;22.90;;
11010;SDS011;5558;42.702;23.178;2022-11-15T00:04:24;29.33;;;20.57;;
11010;SDS011;5558;42.702;23.178;2022-11-15T00:06:50;27.77;;;20.70;;
11010;SDS011;5558;42.702;23.178;2022-11-15T00:09:17;31.90;;;23.43;;
11010;SDS011;5558;42.702;23.178;2022-11-15T00:11:44;31.70;;;22.13;;
11010;SDS011;5558;42.702;23.178;2022-11-15T00:14:10;30.53;;;22.10;;
11010;SDS011;5558;42.702;23.178;2022-11-15T00:16:37;29.33;;;21.63;;
11010;SDS011;5558;42.702;23.178;2022-11-15T00:19:04;25.90;;;19.77;;
11010;SDS011;5558;42.702;23.178;2022-11-15T00:21:32;29.50;;;20.77;;
11010;SDS011;5558;42.702;23.178;2022-11-15T00:23:58;28.13;;;20.43;;
11010;SDS011;5558;42.702;23.178;2022-11-15T00:26:25;24.60;;;19.83;;
11010;SDS011;5558;42.702;23.178;2022-11-15T00:28:52;26.50;;;20.63;;
11010;SDS011;5558;42.702;23.178;2022-11-15T00:31:19;28.83;;;21.07;;
11010;SDS011;5558;42.702;23.178;2022-11-15T00:33:46;29.73;;;21.73;;
11010;SDS011;5558;42.702;23.178;2022-11-15T00:36:12;27.80;;;20.50;;
11010;SDS011;5558;42.702;23.178;2022-11-15T00:38:40;25.83;;;19.90;;
11010;SDS011;5558;42.702;23.178;2022-11-15T00:41:07;26.57;;;19.57;;
11010;SDS011;5558;42.702;23.178;2022-11-15T00:43:35;26.70;;;19.70;;
11010;SDS011;5558;42.702;23.178;2022-11-15T00:46:02;23.23;;;18.60;;
11010;SDS011;5558;42.702;23.178;2022-11-15T00:48:28;27.67;;;19.00;;
11010;SDS011;5558;42.702;23.178;2022-11-15T00:50:56;27.70;;;20.43;;
11010;SDS011;5558;42.702;23.178;2022-11-15T00:53:23;32.73;;;23.50;;
11010;SDS011;5558;42.702;23.178;2022-11-15T00:55:51;32.80;;;22.60;;
11010;SDS011;5558;42.702;23.178;2022-11-15T00:58:18;33.93;;;22.67;;
11010;SDS011;5558;42.702;23.178;2022-11-15T01:00:45;36.20;;;25.63;;
11010;SDS011;5558;42.702;23.178;2022-11-15T01:03:12;33.07;;;24.57;;
11010;SDS011;5558;42.702;23.178;2022-11-15T01:05:38;38.00;;;25.83;;
11010;SDS011;5558;42.702;23.178;2022-11-15T01:08:05;36.57;;;26.17;;
11010;SDS011;5558;42.702;23.178;2022-11-15T01:10:32;36.17;;;26.50;;
11010;SDS011;5558;42.702;23.178;2022-11-15T01:13:00;37.80;;;27.60;;
11010;SDS011;5558;42.702;23.178;2022-11-15T01:15:26;42.37;;;27.90;;
11010;SDS011;5558;42.702;23.178;2022-11-15T01:17:53;49.37;;;32.67;;
11010;SDS011;5558;42.702;23.178;2022-11-15T01:20:20;50.37;;;33.10;;
11010;SDS011;5558;42.702;23.178;2022-11-15T01:22:47;57.10;;;36.77;;
11010;SDS011;5558;42.702;23.178;2022-11-15T01:25:14;55.50;;;36.77;;
11010;SDS011;5558;42.702;23.178;2022-11-15T01:27:40;49.60;;;33.67;;
11010;SDS011;5558;42.702;23.178;2022-11-15T01:30:09;43.10;;;29.87;;
11010;SDS011;5558;42.702;23.178;2022-11-15T01:32:36;36.10;;;27.20;;
11010;SDS011;5558;42.702;23.178;2022-11-15T01:35:03;39.50;;;27.90;;
11010;SDS011;5558;42.702;23.178;2022-11-15T01:37:30;39.53;;;26.90;;
11010;SDS011;5558;42.702;23.178;2022-11-15T01:39:57;39.03;;;26.70;;
11010;SDS011;5558;42.702;23.178;2022-11-15T01:42:23;37.33;;;24.83;;
11010;SDS011;5558;42.702;23.178;2022-11-15T01:44:50;35.73;;;26.43;;
11010;SDS011;5558;42.702;23.178;2022-11-15T01:47:20;36.20;;;25.03;;
11010;SDS011;5558;42.702;23.178;2022-11-15T01:49:51;35.40;;;25.00;;
11010;SDS011;5558;42.702;23.178;2022-11-15T01:52:21;34.40;;;23.90;;
11010;SDS011;5558;42.702;23.178;2022-11-15T01:54:53;30.53;;;22.07;;
11010;SDS011;5558;42.702;23.178;2022-11-15T01:57:24;31.23;;;22.97;;
11010;SDS011;5558;42.702;23.178;2022-11-15T01:59:50;31.03;;;23.37;;
11010;SDS011;5558;42.702;23.178;2022-11-15T02:02:17;32.43;;;23.27;;
11010;SDS011;5558;42.702;23.178;2022-11-15T02:04:46;35.43;;;25.13;;
11010;SDS011;5558;42.702;23.178;2022-11-15T02:07:14;34.27;;;24.40;;
11010;SDS011;5558;42.702;23.178;2022-11-15T02:09:43;31.60;;;24.13;;
11010;SDS011;5558;42.702;23.178;2022-11-15T02:12:11;34.73;;;24.50;;
11010;SDS011;5558;42.702;23.178;2022-11-15T02:14:41;37.70;;;27.50;;
11010;SDS011;5558;42.702;23.178;2022-11-15T02:17:15;37.10;;;26.13;;
11010;SDS011;5558;42.702;23.178;2022-11-15T02:20:13;33.63;;;24.87;;
11010;SDS011;5558;42.702;23.178;2022-11-15T02:26:24;40.03;;;25.97;;
11010;SDS011;5558;42.702;23.178;2022-11-15T02:29:10;37.60;;;25.17;;
11010;SDS011;5558;42.702;23.178;2022-11-15T02:31:43;35.60;;;24.87;;
11010;SDS011;5558;42.702;23.178;2022-11-15T02:34:16;41.13;;;27.93;;
11010;SDS011;5558;42.702;23.178;2022-11-15T02:36:54;38.10;;;27.57;;
11010;SDS011;5558;42.702;23.178;2022-11-15T02:39:31;38.80;;;28.53;;
11010;SDS011;5558;42.702;23.178;2022-11-15T02:42:06;41.30;;;31.33;;
11010;SDS011;5558;42.702;23.178;2022-11-15T02:44:56;42.20;;;27.53;;
11010;SDS011;5558;42.702;23.178;2022-11-15T02:47:27;38.03;;;27.67;;
11010;SDS011;5558;42.702;23.178;2022-11-15T02:49:59;34.67;;;24.93;;
11010;SDS011;5558;42.702;23.178;2022-11-15T02:52:29;35.67;;;24.80;;
11010;SDS011;5558;42.702;23.178;2022-11-15T02:54:56;34.70;;;24.10;;
11010;SDS011;5558;42.702;23.178;2022-11-15T02:57:27;33.63;;;23.27;;
11010;SDS011;5558;42.702;23.178;2022-11-15T03:00:05;29.07;;;21.17;;
11010;SDS011;5558;42.702;23.178;2022-11-15T03:02:44;32.40;;;21.90;;
11010;SDS011;5558;42.702;23.178;2022-11-15T03:05:23;30.70;;;21.67;;
11010;SDS011;5558;42.702;23.178;2022-11-15T03:07:58;31.33;;;22.00;;
11010;SDS011;5558;42.702;23.178;2022-11-15T03:10:32;29.40;;;21.93;;
11010;SDS011;5558;42.702;23.178;2022-11-15T03:13:07;31.63;;;22.67;;
11010;SDS011;5558;42.702;23.178;2022-11-15T03:15:46;35.10;;;23.30;;
11010;SDS011;5558;42.702;23.178;2022-11-15T03:18:21;34.53;;;23.27;;
11010;SDS011;5558;42.702;23.178;2022-11-15T03:20:55;31.33;;;21.70;;
11010;SDS011;5558;42.702;23.178;2022-11-15T03:23:26;28.33;;;20.00;;
11010;SDS011;5558;42.702;23.178;2022-11-15T03:25:56;24.87;;;18.67;;
11010;SDS011;5558;42.702;23.178;2022-11-15T03:28:25;25.60;;;18.07;;
11010;SDS011;5558;42.702;23.178;2022-11-15T03:30:58;25.23;;;19.20;;
11010;SDS011;5558;42.702;23.178;2022-11-15T03:33:49;28.17;;;19.40;;
11010;SDS011;5558;42.702;23.178;2022-11-15T03:36:19;52.67;;;29.50;;
11010;SDS011;5558;42.702;23.178;2022-11-15T03:38:48;47.97;;;29.37;;
11010;SDS011;5558;42.702;23.178;2022-11-15T03:41:15;40.40;;;25.43;;
11010;SDS011;5558;42.702;23.178;2022-11-15T03:43:49;46.97;;;29.57;;
11010;SDS011;5558;42.702;23.178;2022-11-15T03:46:23;56.90;;;36.53;;
11010;SDS011;5558;42.702;23.178;2022-11-15T03:48:56;49.10;;;30.13;;
11010;SDS011;5558;42.702;23.178;2022-11-15T03:51:30;36.67;;;24.80;;
11010;SDS011;5558;42.702;23.178;2022-11-15T03:53:57;36.40;;;24.00;;
11010;SDS011;5558;42.702;23.178;2022-11-15T03:56:23;39.57;;;25.10;;
11010;SDS011;5558;42.702;23.178;2022-11-15T03:58:50;42.27;;;26.70;;
11010;SDS011;5558;42.702;23.178;2022-11-15T04:01:17;40.50;;;26.17;;
11010;SDS011;5558;42.702;23.178;2022-11-15T04:03:44;49.83;;;26.50;;
11010;SDS011;5558;42.702;23.178;2022-11-15T04:06:12;42.83;;;26.53;;
11010;SDS011;5558;42.702;23.178;2022-11-15T04:08:38;50.60;;;27.50;;
11010;SDS011;5558;42.702;23.178;2022-11-15T04:11:05;54.47;;;27.23;;
11010;SDS011;5558;42.702;23.178;2022-11-15T04:13:32;69.77;;;26.57;;
11010;SDS011;5558;42.702;23.178;2022-11-15T04:15:58;48.80;;;28.53;;
11010;SDS011;5558;42.702;23.178;2022-11-15T04:18:25;48.23;;;29.37;;
11010;SDS011;5558;42.702;23.178;2022-11-15T04:20:52;62.40;;;27.53;;
11010;SDS011;5558;42.702;23.178;2022-11-15T04:23:38;64.97;;;27.03;;
11010;SDS011;5558;42.702;23.178;2022-11-15T04:26:27;52.13;;;29.30;;
11010;SDS011;5558;42.702;23.178;2022-11-15T04:28:54;59.37;;;29.93;;
11010;SDS011;5558;42.702;23.178;2022-11-15T04:31:38;59.57;;;29.67;;
11010;SDS011;5558;42.702;23.178;2022-11-15T04:34:05;61.13;;;32.17;;
11010;SDS011;5558;42.702;23.178;2022-11-15T04:36:32;73.03;;;30.63;;
11010;SDS011;5558;42.702;23.178;2022-11-15T04:39:17;75.93;;;32.13;;
11010;SDS011;5558;42.702;23.178;2022-11-15T04:41:44;95.80;;;38.90;;
11010;SDS011;5558;42.702;23.178;2022-11-15T04:44:11;75.07;;;37.57;;
11010;SDS011;5558;42.702;23.178;2022-11-15T04:46:37;61.23;;;35.23;;
11010;SDS011;5558;42.702;23.178;2022-11-15T04:49:04;70.53;;;35.93;;
11010;SDS011;5558;42.702;23.178;2022-11-15T04:51:31;75.67;;;36.30;;
11010;SDS011;5558;42.702;23.178;2022-11-15T04:53:58;81.60;;;35.53;;
11010;SDS011;5558;42.702;23.178;2022-11-15T04:56:26;100.83;;;37.67;;
11010;SDS011;5558;42.702;23.178;2022-11-15T04:58:52;89.17;;;33.03;;
11010;SDS011;5558;42.702;23.178;2022-11-15T05:01:19;50.83;;;31.17;;
11010;SDS011;5558;42.702;23.178;2022-11-15T05:03:46;111.37;;;30.87;;
11010;SDS011;5558;42.702;23.178;2022-11-15T05:06:35;92.53;;;34.40;;
11010;SDS011;5558;42.702;23.178;2022-11-15T05:09:03;77.87;;;35.03;;
11010;SDS011;5558;42.702;23.178;2022-11-15T05:11:32;63.10;;;36.03;;
11010;SDS011;5558;42.702;23.178;2022-11-15T05:13:58;65.10;;;34.60;;
11010;SDS011;5558;42.702;23.178;2022-11-15T05:16:25;114.97;;;33.40;;
11010;SDS011;5558;42.702;23.178;2022-11-15T05:18:52;64.10;;;35.60;;
11010;SDS011;5558;42.702;23.178;2022-11-15T05:21:20;65.43;;;33.97;;
11010;SDS011;5558;42.702;23.178;2022-11-15T05:23:47;71.77;;;36.97;;
11010;SDS011;5558;42.702;23.178;2022-11-15T05:26:16;63.67;;;33.70;;
11010;SDS011;5558;42.702;23.178;2022-11-15T05:28:45;64.80;;;34.10;;
11010;SDS011;5558;42.702;23.178;2022-11-15T05:31:13;88.00;;;32.57;;
11010;SDS011;5558;42.702;23.178;2022-11-15T05:33:41;58.73;;;32.30;;
11010;SDS011;5558;42.702;23.178;2022-11-15T05:36:09;56.83;;;32.77;;
11010;SDS011;5558;42.702;23.178;2022-11-15T05:38:41;57.50;;;30.20;;
11010;SDS011;5558;42.702;23.178;2022-11-15T05:41:08;70.37;;;31.27;;
11010;SDS011;5558;42.702;23.178;2022-11-15T05:43:36;59.43;;;33.03;;
11010;SDS011;5558;42.702;23.178;2022-11-15T05:46:08;62.23;;;31.60;;
11010;SDS011;5558;42.702;23.178;2022-11-15T05:48:35;71.50;;;30.77;;
11010;SDS011;5558;42.702;23.178;2022-11-15T05:51:04;57.77;;;34.67;;
11010;SDS011;5558;42.702;23.178;2022-11-15T05:53:33;59.17;;;35.70;;
11010;SDS011;5558;42.702;23.178;2022-11-15T05:56:01;80.27;;;37.27;;
11010;SDS011;5558;42.702;23.178;2022-11-15T05:58:30;63.33;;;33.47;;
11010;SDS011;5558;42.702;23.178;2022-11-15T06:00:57;62.90;;;32.53;;
11010;SDS011;5558;42.702;23.178;2022-11-15T06:03:26;51.87;;;30.23;;
11010;SDS011;5558;42.702;23.178;2022-11-15T06:05:52;52.37;;;30.03;;
11010;SDS011;5558;42.702;23.178;2022-11-15T06:08:19;51.07;;;29.80;;
11010;SDS011;5558;42.702;23.178;2022-11-15T06:10:46;48.93;;;29.10;;
11010;SDS011;5558;42.702;23.178;2022-11-15T06:13:12;42.70;;;25.83;;
11010;SDS011;5558;42.702;23.178;2022-11-15T06:15:39;45.23;;;26.20;;
11010;SDS011;5558;42.702;23.178;2022-11-15T06:18:06;42.53;;;25.00;;
11010;SDS011;5558;42.702;23.178;2022-11-15T06:20:34;36.97;;;23.70;;
11010;SDS011;5558;42.702;23.178;2022-11-15T06:23:01;34.37;;;22.53;;
11010;SDS011;5558;42.702;23.178;2022-11-15T06:25:30;36.43;;;24.00;;
11010;SDS011;5558;42.702;23.178;2022-11-15T06:27:57;66.77;;;24.93;;
11010;SDS011;5558;42.702;23.178;2022-11-15T06:30:25;43.23;;;27.60;;
11010;SDS011;5558;42.702;23.178;2022-11-15T06:32:57;43.70;;;27.10;;
11010;SDS011;5558;42.702;23.178;2022-11-15T06:35:25;37.13;;;22.17;;
11010;SDS011;5558;42.702;23.178;2022-11-15T06:37:53;40.80;;;23.57;;
11010;SDS011;5558;42.702;23.178;2022-11-15T06:40:20;34.00;;;23.47;;
11010;SDS011;5558;42.702;23.178;2022-11-15T06:42:47;56.93;;;23.97;;
11010;SDS011;5558;42.702;23.178;2022-11-15T06:45:14;62.23;;;25.17;;
11010;SDS011;5558;42.702;23.178;2022-11-15T06:47:44;36.93;;;23.30;;
11010;SDS011;5558;42.702;23.178;2022-11-15T06:50:11;39.03;;;21.97;;
11010;SDS011;5558;42.702;23.178;2022-11-15T06:52:38;49.20;;;26.37;;
11010;SDS011;5558;42.702;23.178;2022-11-15T06:55:07;46.80;;;23.57;;
11010;SDS011;5558;42.702;23.178;2022-11-15T06:57:34;38.87;;;23.93;;
11010;SDS011;5558;42.702;23.178;2022-11-15T07:00:02;36.37;;;24.87;;
11010;SDS011;5558;42.702;23.178;2022-11-15T07:02:29;42.47;;;24.63;;
11010;SDS011;5558;42.702;23.178;2022-11-15T07:04:56;47.17;;;23.83;;
11010;SDS011;5558;42.702;23.178;2022-11-15T07:07:23;37.47;;;25.77;;
11010;SDS011;5558;42.702;23.178;2022-11-15T07:09:49;39.87;;;23.67;;
11010;SDS011;5558;42.702;23.178;2022-11-15T07:12:17;37.50;;;23.80;;
11010;SDS011;5558;42.702;23.178;2022-11-15T07:14:44;39.13;;;26.00;;
11010;SDS011;5558;42.702;23.178;2022-11-15T07:17:11;39.63;;;25.57;;
11010;SDS011;5558;42.702;23.178;2022-11-15T07:19:38;49.53;;;30.17;;
11010;SDS011;5558;42.702;23.178;2022-11-15T07:22:04;44.37;;;25.33;;
11010;SDS011;5558;42.702;23.178;2022-11-15T07:24:31;44.33;;;26.07;;
11010;SDS011;5558;42.702;23.178;2022-11-15T07:26:58;45.07;;;26.67;;
11010;SDS011;5558;42.702;23.178;2022-11-15T07:29:26;46.10;;;26.33;;
11010;SDS011;5558;42.702;23.178;2022-11-15T07:31:52;42.37;;;24.57;;
11010;SDS011;5558;42.702;23.178;2022-11-15T07:34:19;38.80;;;24.83;;
11010;SDS011;5558;42.702;23.178;2022-11-15T07:36:46;55.83;;;26.73;;
11010;SDS011;5558;42.702;23.178;2022-11-15T07:39:13;60.53;;;25.80;;
11010;SDS011;5558;42.702;23.178;2022-11-15T07:41:39;38.37;;;25.17;;
11010;SDS011;5558;42.702;23.178;2022-11-15T07:44:06;41.83;;;26.53;;
11010;SDS011;5558;42.702;23.178;2022-11-15T07:46:34;38.23;;;24.87;;
11010;SDS011;5558;42.702;23.178;2022-11-15T07:49:01;38.57;;;24.37;;
11010;SDS011;5558;42.702;23.178;2022-11-15T07:51:28;41.10;;;25.10;;
11010;SDS011;5558;42.702;23.178;2022-11-15T07:53:54;41.43;;;25.00;;
11010;SDS011;5558;42.702;23.178;2022-11-15T07:56:21;36.53;;;24.37;;
11010;SDS011;5558;42.702;23.178;2022-11-15T07:58:48;37.97;;;25.57;;
11010;SDS011;5558;42.702;23.178;2022-11-15T08:01:15;38.00;;;24.70;;
11010;SDS011;5558;42.702;23.178;2022-11-15T08:03:43;41.77;;;24.17;;
11010;SDS011;5558;42.702;23.178;2022-11-15T08:06:10;40.80;;;25.67;;
11010;SDS011;5558;42.702;23.178;2022-11-15T08:08:36;43.70;;;28.30;;
11010;SDS011;5558;42.702;23.178;2022-11-15T08:11:03;46.33;;;28.50;;
11010;SDS011;5558;42.702;23.178;2022-11-15T08:13:30;41.53;;;26.47;;
11010;SDS011;5558;42.702;23.178;2022-11-15T08:15:57;40.57;;;27.17;;
11010;SDS011;5558;42.702;23.178;2022-11-15T08:18:25;40.23;;;26.13;;
11010;SDS011;5558;42.702;23.178;2022-11-15T08:20:53;32.87;;;23.50;;
11010;SDS011;5558;42.702;23.178;2022-11-15T08:23:20;33.87;;;23.80;;
11010;SDS011;5558;42.702;23.178;2022-11-15T08:25:46;38.30;;;25.00;;
11010;SDS011;5558;42.702;23.178;2022-11-15T08:28:15;36.40;;;25.17;;
11010;SDS011;5558;42.702;23.178;2022-11-15T08:30:42;35.70;;;24.23;;
11010;SDS011;5558;42.702;23.178;2022-11-15T08:33:11;36.40;;;24.17;;
11010;SDS011;5558;42.702;23.178;2022-11-15T08:35:39;36.70;;;24.33;;
11010;SDS011;5558;42.702;23.178;2022-11-15T08:38:07;41.47;;;27.30;;
11010;SDS011;5558;42.702;23.178;2022-11-15T08:40:34;37.93;;;26.10;;
11010;SDS011;5558;42.702;23.178;2022-11-15T08:43:01;37.10;;;24.03;;
11010;SDS011;5558;42.702;23.178;2022-11-15T08:45:28;36.83;;;25.87;;
11010;SDS011;5558;42.702;23.178;2022-11-15T08:47:55;36.03;;;24.07;;
11010;SDS011;5558;42.702;23.178;2022-11-15T08:50:22;35.40;;;24.17;;
11010;SDS011;5558;42.702;23.178;2022-11-15T08:52:49;33.70;;;23.47;;
11010;SDS011;5558;42.702;23.178;2022-11-15T08:55:17;35.10;;;24.93;;
11010;SDS011;5558;42.702;23.178;2022-11-15T08:57:44;33.53;;;23.40;;
11010;SDS011;5558;42.702;23.178;2022-11-15T09:00:11;34.97;;;23.83;;
11010;SDS011;5558;42.702;23.178;2022-11-15T09:02:39;34.37;;;24.07;;
11010;SDS011;5558;42.702;23.178;2022-11-15T09:05:06;33.07;;;23.90;;
11010;SDS011;5558;42.702;23.178;2022-11-15T09:07:33;34.40;;;23.67;;
11010;SDS011;5558;42.702;23.178;2022-11-15T09:10:00;32.60;;;23.47;;
11010;SDS011;5558;42.702;23.178;2022-11-15T09:12:28;36.13;;;24.53;;
11010;SDS011;5558;42.702;23.178;2022-11-15T09:14:55;37.43;;;25.70;;
11010;SDS011;5558;42.702;23.178;2022-11-15T09:17:23;36.70;;;25.17;;
11010;SDS011;5558;42.702;23.178;2022-11-15T09:19:49;36.20;;;24.90;;
11010;SDS011;5558;42.702;23.178;2022-11-15T09:22:16;39.30;;;27.00;;
11010;SDS011;5558;42.702;23.178;2022-11-15T09:24:43;37.57;;;27.47;;
11010;SDS011;5558;42.702;23.178;2022-11-15T09:27:10;36.53;;;26.07;;
11010;SDS011;5558;42.702;23.178;2022-11-15T09:29:39;36.87;;;26.70;;
11010;SDS011;5558;42.702;23.178;2022-11-15T09:32:06;36.27;;;25.37;;
11010;SDS011;5558;42.702;23.178;2022-11-15T09:34:33;37.43;;;25.27;;
11010;SDS011;5558;42.702;23.178;2022-11-15T09:36:59;39.90;;;24.90;;
11010;SDS011;5558;42.702;23.178;2022-11-15T09:39:26;40.27;;;27.37;;
11010;SDS011;5558;42.702;23.178;2022-11-15T09:41:58;41.57;;;28.60;;
11010;SDS011;5558;42.702;23.178;2022-11-15T09:44:42;37.73;;;26.73;;
11010;SDS011;5558;42.702;23.178;2022-11-15T09:47:27;37.97;;;25.13;;
11010;SDS011;5558;42.702;23.178;2022-11-15T09:50:14;44.87;;;29.57;;
11010;SDS011;5558;42.702;23.178;2022-11-15T09:52:44;40.63;;;27.53;;
11010;SDS011;5558;42.702;23.178;2022-11-15T09:55:11;42.40;;;27.77;;
11010;SDS011;5558;42.702;23.178;2022-11-15T09:57:48;41.10;;;27.80;;
11010;SDS011;5558;42.702;23.178;2022-11-15T10:00:21;40.27;;;27.13;;
11010;SDS011;5558;42.702;23.178;2022-11-15T10:02:57;45.57;;;30.73;;
11010;SDS011;5558;42.702;23.178;2022-11-15T10:05:37;49.90;;;31.27;;
11010;SDS011;5558;42.702;23.178;2022-11-15T10:08:10;54.93;;;33.77;;
11010;SDS011;5558;42.702;23.178;2022-11-15T10:10:49;54.73;;;34.23;;
11010;SDS011;5558;42.702;23.178;2022-11-15T10:13:22;56.60;;;35.13;;
11010;SDS011;5558;42.702;23.178;2022-11-15T10:15:52;67.10;;;40.20;;
11010;SDS011;5558;42.702;23.178;2022-11-15T10:18:23;72.20;;;42.27;;
11010;SDS011;5558;42.702;23.178;2022-11-15T10:20:58;69.10;;;41.30;;
11010;SDS011;5558;42.702;23.178;2022-11-15T10:23:26;67.10;;;40.87;;
11010;SDS011;5558;42.702;23.178;2022-11-15T10:25:55;70.97;;;41.63;;
11010;SDS011;5558;42.702;23.178;2022-11-15T10:28:28;70.37;;;42.43;;
11010;SDS011;5558;42.702;23.178;2022-11-15T10:30:59;80.47;;;46.20;;
11010;SDS011;5558;42.702;23.178;2022-11-15T10:33:29;81.57;;;47.13;;
11010;SDS011;5558;42.702;23.178;2022-11-15T10:38:55;108.70;;;55.20;;
11010;SDS011;5558;42.702;23.178;2022-11-15T10:41:29;101.03;;;53.77;;
11010;SDS011;5558;42.702;23.178;2022-11-15T10:44:11;115.53;;;57.70;;
11010;SDS011;5558;42.702;23.178;2022-11-15T10:49:53;113.47;;;57.07;;
11010;SDS011;5558;42.702;23.178;2022-11-15T10:52:25;113.10;;;56.73;;
11010;SDS011;5558;42.702;23.178;2022-11-15T10:54:53;119.03;;;59.77;;
11010;SDS011;5558;42.702;23.178;2022-11-15T10:57:26;116.00;;;58.30;;
11010;SDS011;5558;42.702;23.178;2022-11-15T10:59:55;115.30;;;57.57;;
11010;SDS011;5558;42.702;23.178;2022-11-15T11:02:29;108.97;;;57.77;;
11010;SDS011;5558;42.702;23.178;2022-11-15T11:04:58;125.57;;;64.77;;
11010;SDS011;5558;42.702;23.178;2022-11-15T11:07:26;122.10;;;62.87;;
11010;SDS011;5558;42.702;23.178;2022-11-15T11:09:57;122.93;;;63.13;;
11010;SDS011;5558;42.702;23.178;2022-11-15T11:12:30;127.67;;;64.93;;
11010;SDS011;5558;42.702;23.178;2022-11-15T11:14:59;122.90;;;64.50;;
11010;SDS011;5558;42.702;23.178;2022-11-15T11:17:35;125.93;;;64.40;;
11010;SDS011;5558;42.702;23.178;2022-11-15T11:20:16;125.97;;;65.33;;
11010;SDS011;5558;42.702;23.178;2022-11-15T11:22:50;125.47;;;63.93;;
11010;SDS011;5558;42.702;23.178;2022-11-15T11:25:29;119.87;;;64.87;;
11010;SDS011;5558;42.702;23.178;2022-11-15T11:28:12;126.20;;;66.50;;
11010;SDS011;5558;42.702;23.178;2022-11-15T11:30:54;133.60;;;69.17;;
11010;SDS011;5558;42.702;23.178;2022-11-15T11:33:35;125.20;;;67.93;;
11010;SDS011;5558;42.702;23.178;2022-11-15T11:36:13;117.90;;;62.43;;
11010;SDS011;5558;42.702;23.178;2022-11-15T11:38:50;129.43;;;67.60;;
11010;SDS011;5558;42.702;23.178;2022-11-15T11:44:17;119.93;;;64.33;;
11010;SDS011;5558;42.702;23.178;2022-11-15T11:46:53;125.80;;;66.30;;
11010;SDS011;5558;42.702;23.178;2022-11-15T11:49:27;125.10;;;68.00;;
11010;SDS011;5558;42.702;23.178;2022-11-15T11:52:00;126.53;;;65.60;;
11010;SDS011;5558;42.702;23.178;2022-11-15T11:54:32;126.33;;;70.07;;
11010;SDS011;5558;42.702;23.178;2022-11-15T11:57:07;129.07;;;71.23;;
11010;SDS011;5558;42.702;23.178;2022-11-15T11:59:42;133.97;;;71.63;;
11010;SDS011;5558;42.702;23.178;2022-11-15T12:02:15;137.73;;;76.60;;
11010;SDS011;5558;42.702;23.178;2022-11-15T12:04:49;135.27;;;75.73;;
11010;SDS011;5558;42.702;23.178;2022-11-15T12:07:20;145.83;;;79.27;;
11010;SDS011;5558;42.702;23.178;2022-11-15T12:09:51;131.90;;;74.07;;
11010;SDS011;5558;42.702;23.178;2022-11-15T12:12:25;136.00;;;75.73;;
11010;SDS011;5558;42.702;23.178;2022-11-15T12:14:59;143.07;;;82.03;;
11010;SDS011;5558;42.702;23.178;2022-11-15T12:17:29;130.13;;;75.63;;
11010;SDS011;5558;42.702;23.178;2022-11-15T12:19:59;138.60;;;75.77;;
11010;SDS011;5558;42.702;23.178;2022-11-15T12:22:33;129.40;;;75.40;;
11010;SDS011;5558;42.702;23.178;2022-11-15T12:25:06;118.80;;;70.13;;
11010;SDS011;5558;42.702;23.178;2022-11-15T12:27:42;129.50;;;73.20;;
11010;SDS011;5558;42.702;23.178;2022-11-15T12:30:14;114.67;;;67.13;;
11010;SDS011;5558;42.702;23.178;2022-11-15T12:32:49;111.30;;;66.13;;
11010;SDS011;5558;42.702;23.178;2022-11-15T12:35:24;108.83;;;64.93;;
11010;SDS011;5558;42.702;23.178;2022-11-15T12:37:54;140.90;;;79.17;;
11010;SDS011;5558;42.702;23.178;2022-11-15T12:40:32;113.73;;;66.07;;
11010;SDS011;5558;42.702;23.178;2022-11-15T12:46:03;107.13;;;63.87;;
11010;SDS011;5558;42.702;23.178;2022-11-15T13:03:20;93.67;;;58.10;;
11010;SDS011;5558;42.702;23.178;2022-11-15T13:06:03;89.30;;;55.83;;
11010;SDS011;5558;42.702;23.178;2022-11-15T13:08:38;84.27;;;53.40;;
11010;SDS011;5558;42.702;23.178;2022-11-15T13:17:22;75.67;;;50.80;;
11010;SDS011;5558;42.702;23.178;2022-11-15T13:20:18;77.10;;;49.70;;
11010;SDS011;5558;42.702;23.178;2022-11-15T13:22:48;78.40;;;51.33;;
11010;SDS011;5558;42.702;23.178;2022-11-15T13:25:26;75.03;;;49.57;;
11010;SDS011;5558;42.702;23.178;2022-11-15T13:28:09;74.93;;;49.90;;
11010;SDS011;5558;42.702;23.178;2022-11-15T13:30:37;76.57;;;50.97;;
11010;SDS011;5558;42.702;23.178;2022-11-15T13:33:07;77.00;;;50.17;;
11010;SDS011;5558;42.702;23.178;2022-11-15T13:35:36;73.37;;;49.30;;
11010;SDS011;5558;42.702;23.178;2022-11-15T13:38:17;68.10;;;46.00;;
11010;SDS011;5558;42.702;23.178;2022-11-15T13:40:46;71.73;;;47.57;;
11010;SDS011;5558;42.702;23.178;2022-11-15T13:43:17;73.40;;;49.63;;
11010;SDS011;5558;42.702;23.178;2022-11-15T13:46:03;87.37;;;53.77;;
11010;SDS011;5558;42.702;23.178;2022-11-15T13:48:31;82.20;;;52.67;;
11010;SDS011;5558;42.702;23.178;2022-11-15T13:50:58;80.57;;;51.97;;
11010;SDS011;5558;42.702;23.178;2022-11-15T13:53:26;78.43;;;51.33;;
11010;SDS011;5558;42.702;23.178;2022-11-15T13:55:53;78.03;;;51.80;;
11010;SDS011;5558;42.702;23.178;2022-11-15T13:58:25;114.90;;;66.73;;
11010;SDS011;5558;42.702;23.178;2022-11-15T14:00:58;81.90;;;51.50;;
11010;SDS011;5558;42.702;23.178;2022-11-15T14:03:27;70.23;;;48.00;;
11010;SDS011;5558;42.702;23.178;2022-11-15T14:06:02;69.40;;;47.90;;
11010;SDS011;5558;42.702;23.178;2022-11-15T14:08:32;65.73;;;45.23;;
11010;SDS011;5558;42.702;23.178;2022-11-15T14:11:07;66.10;;;45.70;;
11010;SDS011;5558;42.702;23.178;2022-11-15T14:13:39;64.57;;;44.47;;
11010;SDS011;5558;42.702;23.178;2022-11-15T14:16:12;65.10;;;45.07;;
11010;SDS011;5558;42.702;23.178;2022-11-15T14:18:42;65.23;;;44.57;;
11010;SDS011;5558;42.702;23.178;2022-11-15T14:21:11;63.73;;;44.60;;
11010;SDS011;5558;42.702;23.178;2022-11-15T14:23:38;58.63;;;42.27;;
11010;SDS011;5558;42.702;23.178;2022-11-15T14:26:05;62.47;;;43.27;;
11010;SDS011;5558;42.702;23.178;2022-11-15T14:28:32;59.47;;;41.63;;
11010;SDS011;5558;42.702;23.178;2022-11-15T14:31:06;60.10;;;42.40;;
11010;SDS011;5558;42.702;23.178;2022-11-15T14:33:38;63.83;;;43.87;;
11010;SDS011;5558;42.702;23.178;2022-11-15T14:36:10;63.27;;;42.33;;
11010;SDS011;5558;42.702;23.178;2022-11-15T14:38:38;59.33;;;41.23;;
11010;SDS011;5558;42.702;23.178;2022-11-15T14:41:05;66.90;;;45.20;;
11010;SDS011;5558;42.702;23.178;2022-11-15T14:43:36;71.53;;;47.67;;
11010;SDS011;5558;42.702;23.178;2022-11-15T14:46:03;71.47;;;48.47;;
11010;SDS011;5558;42.702;23.178;2022-11-15T14:48:31;92.77;;;59.77;;
11010;SDS011;5558;42.702;23.178;2022-11-15T14:50:58;95.87;;;64.30;;
11010;SDS011;5558;42.702;23.178;2022-11-15T14:53:25;92.57;;;63.37;;
11010;SDS011;5558;42.702;23.178;2022-11-15T14:55:51;94.87;;;62.77;;
11010;SDS011;5558;42.702;23.178;2022-11-15T14:58:18;81.97;;;54.80;;
11010;SDS011;5558;42.702;23.178;2022-11-15T15:00:45;66.03;;;45.90;;
11010;SDS011;5558;42.702;23.178;2022-11-15T15:03:12;65.97;;;45.10;;
11010;SDS011;5558;42.702;23.178;2022-11-15T15:05:40;63.13;;;42.03;;
11010;SDS011;5558;42.702;23.178;2022-11-15T15:08:08;61.07;;;42.73;;
11010;SDS011;5558;42.702;23.178;2022-11-15T15:10:37;62.87;;;42.97;;
11010;SDS011;5558;42.702;23.178;2022-11-15T15:13:05;60.20;;;42.33;;